createdAt,value
2018-01-10T00:01:45.835Z,6.70
2018-01-10T00:04:13.453Z,6.70
2018-01-10T00:06:41.186Z,6.70
2018-01-10T00:09:09.566Z,6.60
2018-01-10T00:11:37.199Z,6.70
2018-01-10T00:14:04.823Z,6.60
2018-01-10T00:16:32.463Z,6.60
2018-01-10T00:19:00.083Z,6.60
2018-01-10T00:21:27.712Z,6.60
2018-01-10T00:23:55.332Z,6.60
2018-01-10T00:26:22.947Z,6.60
2018-01-10T00:28:50.611Z,6.60
2018-01-10T00:31:18.242Z,6.60
2018-01-10T00:33:45.876Z,6.60
2018-01-10T00:36:13.498Z,6.60
2018-01-10T00:38:41.123Z,6.60
2018-01-10T00:41:08.743Z,6.50
2018-01-10T00:43:36.363Z,6.60
2018-01-10T00:46:04.022Z,6.50
2018-01-10T00:48:31.644Z,6.60
2018-01-10T00:50:59.278Z,6.50
2018-01-10T00:53:27.659Z,6.60
2018-01-10T00:55:55.271Z,6.50
2018-01-10T00:58:22.902Z,6.50
2018-01-10T01:00:50.523Z,6.60
2018-01-10T01:03:18.140Z,6.50
2018-01-10T01:05:45.763Z,6.50
2018-01-10T01:08:13.384Z,6.40
2018-01-10T01:10:41.006Z,6.40
2018-01-10T01:13:08.630Z,6.40
2018-01-10T01:15:36.250Z,6.30
2018-01-10T01:18:03.879Z,6.30
2018-01-10T01:20:31.498Z,6.20
2018-01-10T01:22:59.113Z,6.20
2018-01-10T01:25:26.750Z,6.20
2018-01-10T01:27:54.379Z,6.20
2018-01-10T01:30:22.013Z,6.20
2018-01-10T01:32:49.634Z,6.20
2018-01-10T01:35:17.255Z,6.10
2018-01-10T01:37:44.876Z,6.10
2018-01-10T01:40:12.505Z,6.10
2018-01-10T01:42:40.128Z,6.00
2018-01-10T01:45:07.788Z,6.00
2018-01-10T01:47:35.412Z,6.00
2018-01-10T01:50:03.812Z,5.90
2018-01-10T01:52:31.438Z,5.90
2018-01-10T01:54:59.059Z,5.90
2018-01-10T01:57:26.689Z,5.90
2018-01-10T01:59:55.080Z,5.80
2018-01-10T02:02:22.701Z,5.80
2018-01-10T02:04:50.318Z,5.80
2018-01-10T02:07:17.936Z,5.70
2018-01-10T02:09:45.564Z,5.80
2018-01-10T02:12:13.188Z,5.80
2018-01-10T02:14:41.623Z,5.80
2018-01-10T02:17:09.247Z,5.80
2018-01-10T02:19:37.683Z,5.80
2018-01-10T02:22:05.321Z,5.80
2018-01-10T02:24:32.939Z,5.80
2018-01-10T02:27:00.580Z,5.80
2018-01-10T02:29:28.195Z,5.80
2018-01-10T02:31:55.818Z,5.80
2018-01-10T02:34:23.441Z,5.80
2018-01-10T02:36:51.068Z,5.90
2018-01-10T02:39:18.699Z,5.90
2018-01-10T02:41:46.319Z,5.80
2018-01-10T02:44:14.708Z,5.80
2018-01-10T02:46:42.327Z,5.80
2018-01-10T02:49:09.947Z,5.80
2018-01-10T02:51:37.557Z,5.70
2018-01-10T02:54:05.186Z,5.70
2018-01-10T02:56:32.806Z,5.70
2018-01-10T02:59:00.423Z,5.70
2018-01-10T03:01:28.043Z,5.70
2018-01-10T03:03:55.671Z,5.70
2018-01-10T03:06:23.287Z,5.70
2018-01-10T03:08:50.952Z,5.60
2018-01-10T03:11:19.344Z,5.60
2018-01-10T03:13:47.731Z,5.50
2018-01-10T03:16:16.124Z,5.50
2018-01-10T03:18:43.740Z,5.50
2018-01-10T03:21:11.358Z,5.40
2018-01-10T03:23:38.968Z,5.40
2018-01-10T03:26:06.588Z,5.30
2018-01-10T03:28:34.250Z,5.20
2018-01-10T03:31:01.872Z,5.10
2018-01-10T03:33:29.493Z,5.10
2018-01-10T03:35:57.113Z,5.10
2018-01-10T03:38:24.730Z,5.10
2018-01-10T03:40:52.371Z,5.00
2018-01-10T03:43:20.757Z,4.90
2018-01-10T03:45:48.384Z,4.90
2018-01-10T03:48:16.007Z,4.90
2018-01-10T03:50:43.623Z,4.90
2018-01-10T03:53:11.242Z,4.90
2018-01-10T03:55:38.861Z,4.90
2018-01-10T03:58:06.475Z,4.80
2018-01-10T04:00:34.103Z,4.70
2018-01-10T04:03:02.483Z,4.60
2018-01-10T04:08:21.085Z,4.50
2018-01-10T04:10:48.703Z,4.50
2018-01-10T04:13:16.333Z,4.50
2018-01-10T04:15:43.951Z,4.50
2018-01-10T04:21:02.656Z,4.60
2018-01-10T04:23:30.270Z,4.70
2018-01-10T04:25:57.883Z,4.70
2018-01-10T04:28:25.508Z,4.70
2018-01-10T04:30:53.161Z,4.80
2018-01-10T04:33:20.830Z,4.80
2018-01-10T04:35:48.456Z,4.80
2018-01-10T04:38:16.079Z,4.80
2018-01-10T04:40:44.459Z,4.90
2018-01-10T04:43:12.876Z,5.00
2018-01-10T04:45:40.508Z,5.00
2018-01-10T04:48:08.131Z,5.00
2018-01-10T04:50:35.744Z,5.00
2018-01-10T04:53:04.144Z,5.00
2018-01-10T04:55:31.767Z,5.00
2018-01-10T04:57:59.383Z,5.10
2018-01-10T05:00:27.003Z,5.20
2018-01-10T05:02:54.591Z,5.20
2018-01-10T05:05:22.288Z,5.20
2018-01-10T05:07:49.878Z,5.10
2018-01-10T05:10:17.612Z,5.10
2018-01-10T05:12:45.203Z,5.10
2018-01-10T05:15:12.802Z,5.10
2018-01-10T05:17:41.159Z,5.10
2018-01-10T05:20:10.127Z,5.00
2018-01-10T05:22:37.767Z,5.00
2018-01-10T05:25:05.371Z,5.00
2018-01-10T05:27:32.958Z,5.00
2018-01-10T05:30:00.602Z,4.90
2018-01-10T05:32:28.199Z,4.90
2018-01-10T05:34:55.797Z,4.90
2018-01-10T05:37:23.406Z,4.90
2018-01-10T05:39:50.999Z,4.80
2018-01-10T05:42:19.372Z,4.80
2018-01-10T05:44:46.971Z,4.80
2018-01-10T05:47:14.562Z,4.90
2018-01-10T05:49:42.163Z,4.80
2018-01-10T05:52:09.759Z,4.80
2018-01-10T05:54:37.360Z,4.70
2018-01-10T05:57:04.963Z,4.80
2018-01-10T05:59:32.555Z,4.80
2018-01-10T06:02:00.155Z,4.80
2018-01-10T06:04:27.745Z,4.90
2018-01-10T06:06:55.369Z,4.90
2018-01-10T06:09:22.967Z,5.00
2018-01-10T06:11:50.564Z,5.00
2018-01-10T06:14:18.954Z,5.00
2018-01-10T06:16:47.321Z,5.00
2018-01-10T06:19:14.930Z,5.00
2018-01-10T06:21:42.524Z,5.10
2018-01-10T06:24:11.030Z,5.20
2018-01-10T06:26:38.627Z,5.20
2018-01-10T06:29:06.295Z,5.30
2018-01-10T06:31:33.882Z,5.30
2018-01-10T06:34:01.496Z,5.30
2018-01-10T06:36:29.084Z,5.30
2018-01-10T06:38:57.447Z,5.30
2018-01-10T06:41:25.823Z,5.30
2018-01-10T06:43:53.423Z,5.30
2018-01-10T06:46:21.020Z,5.30
2018-01-10T06:48:48.608Z,5.30
2018-01-10T06:51:17.195Z,5.30
2018-01-10T06:53:44.791Z,5.20
2018-01-10T06:56:13.154Z,5.20
2018-01-10T06:58:40.804Z,5.10
2018-01-10T07:01:08.403Z,5.10
2018-01-10T07:03:35.998Z,5.10
2018-01-10T07:06:03.596Z,5.10
2018-01-10T07:08:31.196Z,5.10
2018-01-10T07:10:59.571Z,5.10
2018-01-10T07:13:27.205Z,5.10
2018-01-10T07:15:54.812Z,5.10
2018-01-10T07:18:22.424Z,5.10
2018-01-10T07:20:50.065Z,5.00
2018-01-10T07:23:17.667Z,5.00
2018-01-10T07:25:45.261Z,5.00
2018-01-10T07:28:12.852Z,5.00
2018-01-10T07:30:40.495Z,5.00
2018-01-10T07:33:08.104Z,5.00
2018-01-10T07:35:35.705Z,5.10
2018-01-10T07:38:03.311Z,5.20
2018-01-10T07:40:30.926Z,5.10
2018-01-10T07:42:58.547Z,5.10
2018-01-10T07:45:26.152Z,5.20
2018-01-10T07:47:53.787Z,5.10
2018-01-10T07:50:21.382Z,5.20
2018-01-10T07:52:48.981Z,5.30
2018-01-10T07:55:17.339Z,5.30
2018-01-10T07:57:44.936Z,5.30
2018-01-10T08:00:13.299Z,5.30
2018-01-10T08:02:40.895Z,5.30
2018-01-10T08:05:09.251Z,5.40
2018-01-10T08:07:36.854Z,5.30
2018-01-10T08:10:04.462Z,5.40
2018-01-10T08:12:32.059Z,5.50
2018-01-10T08:14:59.664Z,5.60
2018-01-10T08:17:27.267Z,5.60
2018-01-10T08:19:54.865Z,5.60
2018-01-10T08:22:22.467Z,5.70
2018-01-10T08:24:50.065Z,5.70
2018-01-10T08:27:17.665Z,5.80
2018-01-10T08:29:46.016Z,5.80
2018-01-10T08:32:13.611Z,5.80
2018-01-10T08:34:41.973Z,5.90
2018-01-10T08:37:09.574Z,5.90
2018-01-10T08:39:37.176Z,5.90
2018-01-10T08:42:04.778Z,5.90
2018-01-10T08:44:33.135Z,6.00
2018-01-10T08:47:00.729Z,5.90
2018-01-10T08:49:28.360Z,6.00
2018-01-10T08:51:56.010Z,6.00
2018-01-10T08:54:23.603Z,6.00
2018-01-10T08:56:51.199Z,6.00
2018-01-10T08:59:18.787Z,6.10
2018-01-10T09:01:46.381Z,6.00
2018-01-10T09:04:13.966Z,6.00
2018-01-10T09:06:41.561Z,6.00
2018-01-10T09:09:09.168Z,6.10
2018-01-10T09:11:36.762Z,6.10
2018-01-10T09:14:04.352Z,6.10
2018-01-10T09:16:32.710Z,6.10
2018-01-10T09:19:00.311Z,6.20
2018-01-10T09:21:27.907Z,6.20
2018-01-10T09:23:55.501Z,6.20
2018-01-10T09:26:23.090Z,6.20
2018-01-10T09:28:51.442Z,6.20
2018-01-10T09:31:19.066Z,6.20
2018-01-10T09:33:46.649Z,6.20
2018-01-10T09:36:14.275Z,6.30
2018-01-10T09:38:41.865Z,6.30
2018-01-10T09:41:09.458Z,6.30
2018-01-10T09:43:37.047Z,6.30
2018-01-10T09:46:05.641Z,6.40
2018-01-10T09:48:34.016Z,6.40
2018-01-10T09:51:02.605Z,6.40
2018-01-10T09:53:30.248Z,6.50
2018-01-10T09:55:57.865Z,6.40
2018-01-10T09:58:25.551Z,6.40
2018-01-10T10:00:53.162Z,6.40
2018-01-10T10:03:22.808Z,6.50
2018-01-10T10:05:50.419Z,6.50
2018-01-10T10:08:18.049Z,6.50
2018-01-10T10:10:45.674Z,6.50
2018-01-10T10:13:13.297Z,6.40
2018-01-10T10:15:40.916Z,6.40
2018-01-10T10:18:09.295Z,6.40
2018-01-10T10:20:37.695Z,6.30
2018-01-10T10:23:05.329Z,6.30
2018-01-10T10:25:32.923Z,6.40
2018-01-10T10:28:00.605Z,6.40
2018-01-10T10:30:28.252Z,6.40
2018-01-10T10:32:55.900Z,6.40
2018-01-10T10:35:24.299Z,6.40
2018-01-10T10:37:52.680Z,6.50
2018-01-10T10:40:20.311Z,6.50
2018-01-10T10:42:48.930Z,6.40
2018-01-10T10:45:17.315Z,6.50
2018-01-10T10:47:44.910Z,6.40
2018-01-10T10:50:12.507Z,6.50
2018-01-10T10:52:40.093Z,6.50
2018-01-10T10:55:07.683Z,6.50
2018-01-10T10:57:36.040Z,6.50
2018-01-10T11:00:03.678Z,6.50
2018-01-10T11:02:31.279Z,6.50
2018-01-10T11:04:59.634Z,6.50
2018-01-10T11:07:27.274Z,6.50
2018-01-10T11:09:54.868Z,6.60
2018-01-10T11:12:22.459Z,6.60
2018-01-10T11:14:50.810Z,6.60
2018-01-10T11:17:18.403Z,6.60
2018-01-10T11:19:46.761Z,6.70
2018-01-10T11:22:14.356Z,6.60
2018-01-10T11:24:41.950Z,6.70
2018-01-10T11:27:09.560Z,6.80
2018-01-10T11:29:37.159Z,6.90
2018-01-10T11:32:05.517Z,6.80
2018-01-10T11:34:33.109Z,6.80
2018-01-10T11:37:00.702Z,6.80
2018-01-10T11:39:28.300Z,6.80
2018-01-10T11:41:55.999Z,6.70
2018-01-10T11:44:24.357Z,6.70
2018-01-10T11:46:51.975Z,6.70
2018-01-10T11:49:20.508Z,6.80
2018-01-10T11:51:48.111Z,6.80
2018-01-10T11:54:16.666Z,6.80
2018-01-10T11:56:44.290Z,6.80
2018-01-10T11:59:11.891Z,6.80
2018-01-10T12:01:39.493Z,6.80
2018-01-10T12:04:07.127Z,6.80
2018-01-10T12:06:34.720Z,6.70
2018-01-10T12:09:02.316Z,6.70
2018-01-10T12:11:29.943Z,6.80
2018-01-10T12:13:57.530Z,6.80
2018-01-10T12:16:25.149Z,6.70
2018-01-10T12:18:52.753Z,6.80
2018-01-10T12:21:20.340Z,6.70
2018-01-10T12:23:47.934Z,6.70
2018-01-10T12:26:16.080Z,6.70
2018-01-10T12:28:43.676Z,6.70
2018-01-10T12:31:11.272Z,6.70
2018-01-10T12:33:38.867Z,6.80
2018-01-10T12:36:06.481Z,6.80
2018-01-10T12:38:34.071Z,6.70
2018-01-10T12:41:01.669Z,6.70
2018-01-10T12:43:29.261Z,6.70
2018-01-10T12:45:56.855Z,6.70
2018-01-10T12:48:25.222Z,6.70
2018-01-10T12:50:52.814Z,6.70
2018-01-10T12:53:21.172Z,6.70
2018-01-10T12:55:48.770Z,6.70
2018-01-10T12:58:16.365Z,6.70
2018-01-10T13:00:43.959Z,6.70
2018-01-10T13:03:11.594Z,6.70
2018-01-10T13:05:39.196Z,6.70
2018-01-10T13:08:06.787Z,6.70
2018-01-10T13:10:39.950Z,6.60
2018-01-10T13:13:07.538Z,6.60
2018-01-10T13:15:35.895Z,6.60
2018-01-10T13:18:03.487Z,6.60
2018-01-10T13:20:31.074Z,6.60
2018-01-10T13:22:58.663Z,6.60
2018-01-10T13:25:26.296Z,6.60
2018-01-10T13:27:53.904Z,6.50
2018-01-10T13:30:21.550Z,6.60
2018-01-10T13:32:49.142Z,6.50
2018-01-10T13:35:16.730Z,6.60
2018-01-10T13:37:44.365Z,6.60
2018-01-10T13:40:11.971Z,6.60
2018-01-10T13:42:40.362Z,6.50
2018-01-10T13:45:07.967Z,6.50
2018-01-10T13:47:35.608Z,6.50
2018-01-10T13:50:03.204Z,6.50
2018-01-10T13:52:30.803Z,6.50
2018-01-10T13:54:58.391Z,6.50
2018-01-10T13:57:25.983Z,6.50
2018-01-10T13:59:53.599Z,6.50
2018-01-10T14:02:21.186Z,6.50
2018-01-10T14:04:48.788Z,6.50
2018-01-10T14:07:16.428Z,6.50
2018-01-10T14:09:44.020Z,6.50
2018-01-10T14:12:11.609Z,6.40
2018-01-10T14:14:39.211Z,6.40
2018-01-10T14:17:06.803Z,6.40
2018-01-10T14:19:34.396Z,6.30
2018-01-10T14:22:02.002Z,6.30
2018-01-10T14:24:29.616Z,6.30
2018-01-10T14:26:57.210Z,6.20
2018-01-10T14:29:24.808Z,6.20
2018-01-10T14:31:52.405Z,6.20
2018-01-10T14:34:19.991Z,6.20
2018-01-10T14:36:47.583Z,6.20
2018-01-10T14:39:15.935Z,6.10
2018-01-10T14:41:43.533Z,6.10
2018-01-10T14:44:11.125Z,6.10
2018-01-10T14:46:38.716Z,6.10
2018-01-10T14:49:06.315Z,6.00
2018-01-10T14:51:33.962Z,6.10
2018-01-10T14:54:01.568Z,6.00
2018-01-10T14:56:29.933Z,6.00
2018-01-10T14:58:58.336Z,5.90
2018-01-10T15:01:25.923Z,5.90
2018-01-10T15:03:53.516Z,5.90
2018-01-10T15:06:21.174Z,5.90
2018-01-10T15:08:48.762Z,5.90
2018-01-10T15:11:16.344Z,6.00
2018-01-10T15:13:44.704Z,5.90
2018-01-10T15:16:13.231Z,5.90
2018-01-10T15:18:40.827Z,5.90
2018-01-10T15:21:08.446Z,5.90
2018-01-10T15:23:36.039Z,5.90
2018-01-10T15:26:03.651Z,5.80
2018-01-10T15:28:31.327Z,5.80
2018-01-10T15:30:58.949Z,5.80
2018-01-10T15:33:26.589Z,5.80
2018-01-10T15:35:54.189Z,5.80
2018-01-10T15:38:21.852Z,5.80
2018-01-10T15:40:49.455Z,5.80
2018-01-10T15:43:17.118Z,5.80
2018-01-10T15:45:44.716Z,5.80
2018-01-10T15:48:13.067Z,5.80
2018-01-10T15:50:40.671Z,5.80
2018-01-10T15:53:08.276Z,5.80
2018-01-10T15:55:35.859Z,5.80
2018-01-10T15:58:03.954Z,5.70
2018-01-10T16:00:32.443Z,5.70
2018-01-10T16:03:05.530Z,5.70
2018-01-10T16:05:36.650Z,5.60
2018-01-10T16:08:07.489Z,5.60
2018-01-10T16:10:35.445Z,5.60
2018-01-10T16:13:03.114Z,5.60
2018-01-10T16:15:34.198Z,5.50
2018-01-10T16:18:02.555Z,5.50
2018-01-10T16:20:30.155Z,5.50
2018-01-10T16:22:58.574Z,5.50
2018-01-10T16:25:26.289Z,5.50
2018-01-10T16:27:53.900Z,5.50
2018-01-10T16:30:21.496Z,5.50
2018-01-10T16:32:49.095Z,5.50
2018-01-10T16:35:17.462Z,5.40
2018-01-10T16:37:45.051Z,5.40
2018-01-10T16:40:12.639Z,5.40
2018-01-10T16:42:40.230Z,5.40
2018-01-10T16:45:07.827Z,5.40
2018-01-10T16:47:35.421Z,5.40
2018-01-10T16:50:03.043Z,5.40
2018-01-10T16:52:30.644Z,5.40
2018-01-10T16:54:58.241Z,5.40
2018-01-10T16:57:25.836Z,5.40
2018-01-10T16:59:53.438Z,5.30
2018-01-10T17:02:21.071Z,5.30
2018-01-10T17:04:49.655Z,5.30
2018-01-10T17:07:18.244Z,5.30
2018-01-10T17:09:45.830Z,5.30
2018-01-10T17:12:15.424Z,5.20
2018-01-10T17:14:43.811Z,5.20
2018-01-10T17:17:11.448Z,5.20
2018-01-10T17:19:39.035Z,5.20
2018-01-10T17:22:06.651Z,5.20
2018-01-10T17:24:34.251Z,5.20
2018-01-10T17:27:01.887Z,5.20
2018-01-10T17:29:29.485Z,5.20
2018-01-10T17:31:57.091Z,5.20
2018-01-10T17:34:25.458Z,5.10
2018-01-10T17:36:53.048Z,5.10
2018-01-10T17:39:20.644Z,5.10
2018-01-10T17:41:48.251Z,5.10
2018-01-10T17:44:15.849Z,5.00
2018-01-10T17:46:43.446Z,5.00
2018-01-10T17:49:11.051Z,4.90
2018-01-10T17:51:39.411Z,4.90
2018-01-10T17:54:07.019Z,4.80
2018-01-10T17:56:34.615Z,4.80
2018-01-10T17:59:02.223Z,4.80
2018-01-10T18:01:29.819Z,4.80
2018-01-10T18:03:57.424Z,4.80
2018-01-10T18:06:25.034Z,4.80
2018-01-10T18:08:53.395Z,4.80
2018-01-10T18:11:20.993Z,4.80
2018-01-10T18:13:48.600Z,4.80
2018-01-10T18:16:16.196Z,4.80
2018-01-10T18:18:43.837Z,4.80
2018-01-10T18:21:11.441Z,4.80
2018-01-10T18:23:39.820Z,4.80
2018-01-10T18:26:08.249Z,4.80
2018-01-10T18:28:35.835Z,4.80
2018-01-10T18:31:03.439Z,4.70
2018-01-10T18:33:31.792Z,4.70
2018-01-10T18:35:59.413Z,4.70
2018-01-10T18:38:27.064Z,4.60
2018-01-10T18:40:54.656Z,4.60
2018-01-10T18:43:22.264Z,4.60
2018-01-10T18:45:49.868Z,4.60
2018-01-10T18:48:17.465Z,4.60
2018-01-10T18:50:45.094Z,4.60
2018-01-10T18:53:12.692Z,4.60
2018-01-10T18:55:40.278Z,4.60
2018-01-10T18:58:07.891Z,4.70
2018-01-10T19:00:35.488Z,4.70
2018-01-10T19:03:03.090Z,4.70
2018-01-10T19:05:31.459Z,4.60
2018-01-10T19:07:59.085Z,4.60
2018-01-10T19:10:26.682Z,4.60
2018-01-10T19:12:54.282Z,4.60
2018-01-10T19:15:21.884Z,4.70
2018-01-10T19:17:49.483Z,4.70
2018-01-10T19:20:17.077Z,4.70
2018-01-10T19:22:45.450Z,4.50
2018-01-10T19:25:13.817Z,4.40
2018-01-10T19:27:41.452Z,4.40
2018-01-10T19:30:09.043Z,4.40
2018-01-10T19:32:36.632Z,4.30
2018-01-10T19:35:04.993Z,4.30
2018-01-10T19:37:32.588Z,4.20
2018-01-10T19:40:00.184Z,4.20
2018-01-10T19:42:27.785Z,4.20
2018-01-10T19:44:55.374Z,4.20
2018-01-10T19:47:23.741Z,4.20
2018-01-10T19:49:51.486Z,4.20
2018-01-10T19:52:19.076Z,4.30
2018-01-10T19:54:46.670Z,4.30
2018-01-10T19:57:14.261Z,4.30
2018-01-10T19:59:41.848Z,4.20
2018-01-10T20:02:09.443Z,4.20
2018-01-10T20:04:37.036Z,4.10
2018-01-10T20:07:04.628Z,4.10
2018-01-10T20:09:32.224Z,4.10
2018-01-10T20:11:59.824Z,4.00
2018-01-10T20:14:27.415Z,4.00
2018-01-10T20:16:55.003Z,4.00
2018-01-10T20:19:22.590Z,4.00
2018-01-10T20:21:50.189Z,3.90
2018-01-10T20:24:17.783Z,3.90
2018-01-10T20:26:45.389Z,3.90
2018-01-10T20:29:13.763Z,3.90
2018-01-10T20:31:41.355Z,3.80
2018-01-10T20:34:08.995Z,3.80
2018-01-10T20:36:36.591Z,3.80
2018-01-10T20:39:04.239Z,3.80
2018-01-10T20:41:31.827Z,3.80
2018-01-10T20:43:59.411Z,3.80
2018-01-10T20:46:27.016Z,3.90
2018-01-10T20:48:54.611Z,3.90
2018-01-10T20:51:22.215Z,3.80
2018-01-10T20:53:49.810Z,3.80
2018-01-10T20:56:17.457Z,3.80
2018-01-10T20:58:45.088Z,3.90
2018-01-10T21:01:12.687Z,3.90
2018-01-10T21:03:40.277Z,3.80
2018-01-10T21:06:07.875Z,3.80
2018-01-10T21:08:35.468Z,3.80
2018-01-10T21:11:03.059Z,3.80
2018-01-10T21:13:30.652Z,3.70
2018-01-10T21:15:59.013Z,3.70
2018-01-10T21:18:26.718Z,3.70
2018-01-10T21:20:54.312Z,3.70
2018-01-10T21:23:21.915Z,3.70
2018-01-10T21:25:49.503Z,3.70
2018-01-10T21:28:17.930Z,3.70
2018-01-10T21:30:45.529Z,3.70
2018-01-10T21:33:13.132Z,3.70
2018-01-10T21:35:40.723Z,3.70
2018-01-10T21:38:08.411Z,3.70
2018-01-10T21:40:35.999Z,3.70
2018-01-10T21:43:04.359Z,3.80
2018-01-10T21:45:31.948Z,3.80
2018-01-10T21:48:00.307Z,4.00
2018-01-10T21:50:27.935Z,3.90
2018-01-10T21:52:55.533Z,4.00
2018-01-10T21:55:23.926Z,3.90
2018-01-10T21:57:51.511Z,3.90
2018-01-10T22:00:19.871Z,3.90
2018-01-10T22:02:47.479Z,3.90
2018-01-10T22:05:15.078Z,3.90
2018-01-10T22:07:42.686Z,3.90
2018-01-10T22:10:11.038Z,3.80
2018-01-10T22:12:38.647Z,3.80
2018-01-10T22:15:06.239Z,3.80
2018-01-10T22:17:33.847Z,3.70
2018-01-10T22:20:01.435Z,3.70
2018-01-10T22:22:29.045Z,3.70
2018-01-10T22:24:56.651Z,3.60
2018-01-10T22:27:25.219Z,3.60
2018-01-10T22:29:52.808Z,3.50
2018-01-10T22:32:21.250Z,3.50
2018-01-10T22:34:48.840Z,3.50
2018-01-10T22:37:16.468Z,3.50
2018-01-10T22:39:44.064Z,3.50
2018-01-10T22:42:11.666Z,3.50
2018-01-10T22:44:40.971Z,3.50
2018-01-10T22:47:08.575Z,3.50
2018-01-10T22:49:36.174Z,3.50
2018-01-10T22:52:03.783Z,3.50
2018-01-10T22:54:31.374Z,3.40
2018-01-10T22:56:58.972Z,3.40
2018-01-10T22:59:26.555Z,3.40
2018-01-10T23:01:54.174Z,3.30
2018-01-10T23:04:21.770Z,3.30
2018-01-10T23:06:49.392Z,3.20
2018-01-10T23:09:16.987Z,3.20
2018-01-10T23:11:45.503Z,3.30
2018-01-10T23:14:13.860Z,3.30
2018-01-10T23:16:41.530Z,3.30
2018-01-10T23:19:09.120Z,3.40
2018-01-10T23:21:37.483Z,3.40
2018-01-10T23:24:05.887Z,3.40
2018-01-10T23:26:34.237Z,3.40
2018-01-10T23:29:01.827Z,3.30
2018-01-10T23:31:30.184Z,3.30
2018-01-10T23:33:57.778Z,3.30
2018-01-10T23:36:26.142Z,3.30
2018-01-10T23:38:53.731Z,3.30
2018-01-10T23:41:21.331Z,3.30
2018-01-10T23:43:48.985Z,3.30
2018-01-10T23:46:16.556Z,3.30
2018-01-10T23:48:44.143Z,3.30
2018-01-10T23:51:11.739Z,3.40
2018-01-10T23:53:40.086Z,3.40
2018-01-10T23:56:07.692Z,3.40
2018-01-10T23:58:36.215Z,3.40
